sensor_id;sensor_type;location;lat;lon;timestamp;temperature;humidity
14924;DHT22;7554;43.600;1.480;2023-07-28T00:01:29;22.30;1.00
14924;DHT22;7554;43.600;1.480;2023-07-28T00:03:57;22.30;1.00
14924;DHT22;7554;43.600;1.480;2023-07-28T00:06:24;22.30;1.00
14924;DHT22;7554;43.600;1.480;2023-07-28T00:08:51;22.20;1.00
14924;DHT22;7554;43.600;1.480;2023-07-28T00:11:19;22.30;1.00
14924;DHT22;7554;43.600;1.480;2023-07-28T00:13:46;22.30;1.00
14924;DHT22;7554;43.600;1.480;2023-07-28T00:16:13;22.30;1.00
14924;DHT22;7554;43.600;1.480;2023-07-28T00:18:42;22.30;1.00
14924;DHT22;7554;43.600;1.480;2023-07-28T00:21:10;22.30;1.00
14924;DHT22;7554;43.600;1.480;2023-07-28T00:23:37;22.20;1.00
14924;DHT22;7554;43.600;1.480;2023-07-28T00:26:04;22.20;1.00
14924;DHT22;7554;43.600;1.480;2023-07-28T00:28:31;22.20;1.00
14924;DHT22;7554;43.600;1.480;2023-07-28T00:30:59;22.20;1.00
14924;DHT22;7554;43.600;1.480;2023-07-28T00:33:26;22.20;1.00
14924;DHT22;7554;43.600;1.480;2023-07-28T00:35:55;22.10;1.00
14924;DHT22;7554;43.600;1.480;2023-07-28T00:38:22;22.00;1.00
14924;DHT22;7554;43.600;1.480;2023-07-28T00:40:49;22.00;1.00
14924;DHT22;7554;43.600;1.480;2023-07-28T00:43:16;21.90;1.00
14924;DHT22;7554;43.600;1.480;2023-07-28T00:45:44;21.90;1.00
14924;DHT22;7554;43.600;1.480;2023-07-28T00:48:13;21.80;1.00
14924;DHT22;7554;43.600;1.480;2023-07-28T00:50:42;21.80;1.00
14924;DHT22;7554;43.600;1.480;2023-07-28T00:53:13;21.80;1.00
14924;DHT22;7554;43.600;1.480;2023-07-28T00:55:41;21.80;1.00
14924;DHT22;7554;43.600;1.480;2023-07-28T00:58:09;21.80;1.00
14924;DHT22;7554;43.600;1.480;2023-07-28T01:00:36;21.90;1.00
14924;DHT22;7554;43.600;1.480;2023-07-28T01:03:03;21.80;1.00
14924;DHT22;7554;43.600;1.480;2023-07-28T01:05:44;21.60;1.00
14924;DHT22;7554;43.600;1.480;2023-07-28T01:08:19;21.50;1.00
14924;DHT22;7554;43.600;1.480;2023-07-28T01:10:49;21.30;1.00
14924;DHT22;7554;43.600;1.480;2023-07-28T01:13:17;21.00;1.00
14924;DHT22;7554;43.600;1.480;2023-07-28T01:15:44;20.90;1.00
14924;DHT22;7554;43.600;1.480;2023-07-28T01:18:12;20.90;1.00
14924;DHT22;7554;43.600;1.480;2023-07-28T01:20:39;20.90;1.00
14924;DHT22;7554;43.600;1.480;2023-07-28T01:23:20;20.90;1.00
14924;DHT22;7554;43.600;1.480;2023-07-28T01:25:58;21.00;1.00
14924;DHT22;7554;43.600;1.480;2023-07-28T01:28:30;20.90;1.00
14924;DHT22;7554;43.600;1.480;2023-07-28T01:31:00;20.80;1.00
14924;DHT22;7554;43.600;1.480;2023-07-28T01:33:28;20.80;1.00
14924;DHT22;7554;43.600;1.480;2023-07-28T01:35:55;20.80;1.00
14924;DHT22;7554;43.600;1.480;2023-07-28T01:38:24;20.90;1.00
14924;DHT22;7554;43.600;1.480;2023-07-28T01:40:51;20.90;1.00
14924;DHT22;7554;43.600;1.480;2023-07-28T01:43:19;21.00;1.00
14924;DHT22;7554;43.600;1.480;2023-07-28T01:45:47;20.90;1.00
14924;DHT22;7554;43.600;1.480;2023-07-28T01:48:15;20.80;1.00
14924;DHT22;7554;43.600;1.480;2023-07-28T01:50:42;20.80;1.00
14924;DHT22;7554;43.600;1.480;2023-07-28T01:53:09;20.70;1.00
14924;DHT22;7554;43.600;1.480;2023-07-28T01:55:37;20.70;1.00
14924;DHT22;7554;43.600;1.480;2023-07-28T01:58:04;20.60;1.00
14924;DHT22;7554;43.600;1.480;2023-07-28T02:00:31;20.60;1.00
14924;DHT22;7554;43.600;1.480;2023-07-28T02:03:00;20.60;1.00
14924;DHT22;7554;43.600;1.480;2023-07-28T02:05:28;20.50;1.00
14924;DHT22;7554;43.600;1.480;2023-07-28T02:07:56;20.50;1.00
14924;DHT22;7554;43.600;1.480;2023-07-28T02:10:25;20.50;1.00
14924;DHT22;7554;43.600;1.480;2023-07-28T02:12:53;20.50;1.00
14924;DHT22;7554;43.600;1.480;2023-07-28T02:15:20;20.50;1.00
14924;DHT22;7554;43.600;1.480;2023-07-28T02:17:47;20.40;1.00
14924;DHT22;7554;43.600;1.480;2023-07-28T02:20:16;20.40;1.00
14924;DHT22;7554;43.600;1.480;2023-07-28T02:22:43;20.40;1.00
14924;DHT22;7554;43.600;1.480;2023-07-28T02:25:11;20.40;1.00
14924;DHT22;7554;43.600;1.480;2023-07-28T02:27:38;20.30;1.00
14924;DHT22;7554;43.600;1.480;2023-07-28T02:30:06;20.30;1.00
14924;DHT22;7554;43.600;1.480;2023-07-28T02:32:34;20.30;1.00
14924;DHT22;7554;43.600;1.480;2023-07-28T02:35:01;20.20;1.00
14924;DHT22;7554;43.600;1.480;2023-07-28T02:37:30;20.20;1.00
14924;DHT22;7554;43.600;1.480;2023-07-28T02:39:57;20.20;1.00
14924;DHT22;7554;43.600;1.480;2023-07-28T02:42:24;20.10;1.00
14924;DHT22;7554;43.600;1.480;2023-07-28T02:44:52;20.10;1.00
14924;DHT22;7554;43.600;1.480;2023-07-28T02:47:19;20.10;1.00
14924;DHT22;7554;43.600;1.480;2023-07-28T02:49:47;20.10;1.00
14924;DHT22;7554;43.600;1.480;2023-07-28T02:52:14;20.00;1.00
14924;DHT22;7554;43.600;1.480;2023-07-28T02:54:43;20.00;1.00
14924;DHT22;7554;43.600;1.480;2023-07-28T02:57:10;20.00;1.00
14924;DHT22;7554;43.600;1.480;2023-07-28T02:59:37;20.00;1.00
14924;DHT22;7554;43.600;1.480;2023-07-28T03:02:05;20.00;1.00
14924;DHT22;7554;43.600;1.480;2023-07-28T03:04:32;19.90;1.00
14924;DHT22;7554;43.600;1.480;2023-07-28T03:06:59;19.90;1.00
14924;DHT22;7554;43.600;1.480;2023-07-28T03:09:27;20.00;1.00
14924;DHT22;7554;43.600;1.480;2023-07-28T03:11:55;20.00;1.00
14924;DHT22;7554;43.600;1.480;2023-07-28T03:14:23;20.00;1.00
14924;DHT22;7554;43.600;1.480;2023-07-28T03:16:51;20.00;1.00
14924;DHT22;7554;43.600;1.480;2023-07-28T03:19:19;19.90;1.00
14924;DHT22;7554;43.600;1.480;2023-07-28T03:21:46;19.90;1.00
14924;DHT22;7554;43.600;1.480;2023-07-28T03:24:13;19.90;1.00
14924;DHT22;7554;43.600;1.480;2023-07-28T03:26:41;19.90;1.00
14924;DHT22;7554;43.600;1.480;2023-07-28T03:29:09;19.90;1.00
14924;DHT22;7554;43.600;1.480;2023-07-28T03:31:37;19.80;1.00
14924;DHT22;7554;43.600;1.480;2023-07-28T03:34:04;19.80;1.00
14924;DHT22;7554;43.600;1.480;2023-07-28T03:36:31;19.70;1.00
14924;DHT22;7554;43.600;1.480;2023-07-28T03:38:59;19.70;1.00
14924;DHT22;7554;43.600;1.480;2023-07-28T03:41:26;19.80;1.00
14924;DHT22;7554;43.600;1.480;2023-07-28T03:43:53;19.80;1.00
14924;DHT22;7554;43.600;1.480;2023-07-28T03:46:22;19.80;1.00
14924;DHT22;7554;43.600;1.480;2023-07-28T03:48:49;19.70;1.00
14924;DHT22;7554;43.600;1.480;2023-07-28T03:51:16;19.70;1.00
14924;DHT22;7554;43.600;1.480;2023-07-28T03:53:44;19.70;1.00
14924;DHT22;7554;43.600;1.480;2023-07-28T03:56:11;19.80;1.00
14924;DHT22;7554;43.600;1.480;2023-07-28T03:58:38;19.70;1.00
14924;DHT22;7554;43.600;1.480;2023-07-28T04:01:05;19.70;1.00
14924;DHT22;7554;43.600;1.480;2023-07-28T04:03:36;19.70;1.00
14924;DHT22;7554;43.600;1.480;2023-07-28T04:06:09;19.70;1.00
14924;DHT22;7554;43.600;1.480;2023-07-28T04:08:37;19.80;1.00
14924;DHT22;7554;43.600;1.480;2023-07-28T04:11:04;19.70;1.00
14924;DHT22;7554;43.600;1.480;2023-07-28T04:13:32;19.70;1.00
14924;DHT22;7554;43.600;1.480;2023-07-28T04:15:59;19.70;1.00
14924;DHT22;7554;43.600;1.480;2023-07-28T04:18:27;19.70;1.00
14924;DHT22;7554;43.600;1.480;2023-07-28T04:20:56;19.70;1.00
14924;DHT22;7554;43.600;1.480;2023-07-28T04:23:23;19.60;1.00
14924;DHT22;7554;43.600;1.480;2023-07-28T04:25:50;19.70;1.00
14924;DHT22;7554;43.600;1.480;2023-07-28T04:28:17;19.70;1.00
14924;DHT22;7554;43.600;1.480;2023-07-28T04:30:45;19.70;1.00
14924;DHT22;7554;43.600;1.480;2023-07-28T04:33:12;19.70;1.00
14924;DHT22;7554;43.600;1.480;2023-07-28T04:35:40;19.70;1.00
14924;DHT22;7554;43.600;1.480;2023-07-28T04:38:08;19.60;1.00
14924;DHT22;7554;43.600;1.480;2023-07-28T04:40:36;19.60;1.00
14924;DHT22;7554;43.600;1.480;2023-07-28T04:43:03;19.70;1.00
14924;DHT22;7554;43.600;1.480;2023-07-28T04:45:30;19.70;1.00
14924;DHT22;7554;43.600;1.480;2023-07-28T04:47:57;19.70;1.00
14924;DHT22;7554;43.600;1.480;2023-07-28T04:50:25;19.90;1.00
14924;DHT22;7554;43.600;1.480;2023-07-28T04:52:52;20.10;1.00
14924;DHT22;7554;43.600;1.480;2023-07-28T04:55:21;20.40;1.00
14924;DHT22;7554;43.600;1.480;2023-07-28T04:57:48;20.70;1.00
14924;DHT22;7554;43.600;1.480;2023-07-28T05:00:16;20.90;1.00
14924;DHT22;7554;43.600;1.480;2023-07-28T05:02:43;21.20;1.00
14924;DHT22;7554;43.600;1.480;2023-07-28T05:05:10;21.30;1.00
14924;DHT22;7554;43.600;1.480;2023-07-28T05:07:38;21.80;1.00
14924;DHT22;7554;43.600;1.480;2023-07-28T05:10:06;22.40;1.00
14924;DHT22;7554;43.600;1.480;2023-07-28T05:12:35;22.90;1.00
14924;DHT22;7554;43.600;1.480;2023-07-28T05:15:02;23.40;1.00
14924;DHT22;7554;43.600;1.480;2023-07-28T05:17:30;24.00;1.00
14924;DHT22;7554;43.600;1.480;2023-07-28T05:19:57;24.40;1.00
14924;DHT22;7554;43.600;1.480;2023-07-28T05:22:25;24.80;1.00
14924;DHT22;7554;43.600;1.480;2023-07-28T05:24:52;25.30;1.00
14924;DHT22;7554;43.600;1.480;2023-07-28T05:27:19;25.50;1.00
14924;DHT22;7554;43.600;1.480;2023-07-28T05:29:48;25.80;1.00
14924;DHT22;7554;43.600;1.480;2023-07-28T05:32:15;26.30;1.00
14924;DHT22;7554;43.600;1.480;2023-07-28T05:34:43;26.70;1.00
14924;DHT22;7554;43.600;1.480;2023-07-28T05:37:10;27.10;1.00
14924;DHT22;7554;43.600;1.480;2023-07-28T05:39:38;27.60;1.00
14924;DHT22;7554;43.600;1.480;2023-07-28T05:42:06;28.00;1.00
14924;DHT22;7554;43.600;1.480;2023-07-28T05:44:34;28.50;1.00
14924;DHT22;7554;43.600;1.480;2023-07-28T05:47:02;28.80;1.00
14924;DHT22;7554;43.600;1.480;2023-07-28T05:49:30;29.20;1.00
14924;DHT22;7554;43.600;1.480;2023-07-28T05:51:58;29.50;1.00
14924;DHT22;7554;43.600;1.480;2023-07-28T05:54:25;29.90;1.00
14924;DHT22;7554;43.600;1.480;2023-07-28T05:56:52;30.30;1.00
14924;DHT22;7554;43.600;1.480;2023-07-28T05:59:20;30.90;1.00
14924;DHT22;7554;43.600;1.480;2023-07-28T06:01:47;31.20;1.00
14924;DHT22;7554;43.600;1.480;2023-07-28T06:04:16;31.70;1.00
14924;DHT22;7554;43.600;1.480;2023-07-28T06:06:43;31.70;1.00
14924;DHT22;7554;43.600;1.480;2023-07-28T06:09:11;31.90;1.00
14924;DHT22;7554;43.600;1.480;2023-07-28T06:11:38;31.90;1.00
14924;DHT22;7554;43.600;1.480;2023-07-28T06:14:05;32.00;1.00
14924;DHT22;7554;43.600;1.480;2023-07-28T06:16:33;32.90;1.00
14924;DHT22;7554;43.600;1.480;2023-07-28T06:19:00;33.40;1.00
14924;DHT22;7554;43.600;1.480;2023-07-28T06:21:29;33.70;1.00
14924;DHT22;7554;43.600;1.480;2023-07-28T06:23:56;34.20;1.00
14924;DHT22;7554;43.600;1.480;2023-07-28T06:26:23;34.70;1.00
14924;DHT22;7554;43.600;1.480;2023-07-28T06:28:50;35.00;1.00
14924;DHT22;7554;43.600;1.480;2023-07-28T06:31:18;35.10;1.00
14924;DHT22;7554;43.600;1.480;2023-07-28T06:33:47;35.90;1.00
14924;DHT22;7554;43.600;1.480;2023-07-28T06:36:14;36.60;1.00
14924;DHT22;7554;43.600;1.480;2023-07-28T06:38:45;37.40;1.00
14924;DHT22;7554;43.600;1.480;2023-07-28T06:41:14;38.00;1.00
14924;DHT22;7554;43.600;1.480;2023-07-28T06:43:41;36.50;1.00
14924;DHT22;7554;43.600;1.480;2023-07-28T06:46:08;35.40;1.00
14924;DHT22;7554;43.600;1.480;2023-07-28T06:48:36;34.60;1.00
14924;DHT22;7554;43.600;1.480;2023-07-28T06:51:03;35.40;1.00
14924;DHT22;7554;43.600;1.480;2023-07-28T06:53:30;35.40;1.00
14924;DHT22;7554;43.600;1.480;2023-07-28T06:56:00;33.90;1.00
14924;DHT22;7554;43.600;1.480;2023-07-28T06:58:27;33.90;1.00
14924;DHT22;7554;43.600;1.480;2023-07-28T07:00:57;35.00;1.00
14924;DHT22;7554;43.600;1.480;2023-07-28T07:03:24;36.30;1.00
14924;DHT22;7554;43.600;1.480;2023-07-28T07:05:52;37.20;1.00
14924;DHT22;7554;43.600;1.480;2023-07-28T07:08:20;38.40;1.00
14924;DHT22;7554;43.600;1.480;2023-07-28T07:10:48;38.60;1.00
14924;DHT22;7554;43.600;1.480;2023-07-28T07:13:17;38.50;1.00
14924;DHT22;7554;43.600;1.480;2023-07-28T07:15:45;39.20;1.00
14924;DHT22;7554;43.600;1.480;2023-07-28T07:18:12;39.20;1.00
14924;DHT22;7554;43.600;1.480;2023-07-28T07:20:40;37.20;1.00
14924;DHT22;7554;43.600;1.480;2023-07-28T07:23:07;37.00;1.00
14924;DHT22;7554;43.600;1.480;2023-07-28T07:25:34;37.60;1.00
14924;DHT22;7554;43.600;1.480;2023-07-28T07:28:02;37.40;1.00
14924;DHT22;7554;43.600;1.480;2023-07-28T07:30:33;38.80;1.00
14924;DHT22;7554;43.600;1.480;2023-07-28T07:33:01;38.90;1.00
14924;DHT22;7554;43.600;1.480;2023-07-28T07:35:28;39.00;1.00
14924;DHT22;7554;43.600;1.480;2023-07-28T07:37:56;37.30;1.00
14924;DHT22;7554;43.600;1.480;2023-07-28T07:40:23;38.00;1.00
14924;DHT22;7554;43.600;1.480;2023-07-28T07:42:50;38.80;1.00
14924;DHT22;7554;43.600;1.480;2023-07-28T07:45:18;39.60;1.00
14924;DHT22;7554;43.600;1.480;2023-07-28T07:47:47;40.30;1.00
14924;DHT22;7554;43.600;1.480;2023-07-28T07:50:14;40.60;1.00
14924;DHT22;7554;43.600;1.480;2023-07-28T07:52:42;40.90;1.00
14924;DHT22;7554;43.600;1.480;2023-07-28T07:55:09;41.00;1.00
14924;DHT22;7554;43.600;1.480;2023-07-28T07:57:38;40.00;1.00
14924;DHT22;7554;43.600;1.480;2023-07-28T08:00:08;38.90;1.00
14924;DHT22;7554;43.600;1.480;2023-07-28T08:02:36;39.00;1.00
14924;DHT22;7554;43.600;1.480;2023-07-28T08:05:06;39.10;1.00
14924;DHT22;7554;43.600;1.480;2023-07-28T08:07:33;40.50;1.00
14924;DHT22;7554;43.600;1.480;2023-07-28T08:10:01;40.60;1.00
14924;DHT22;7554;43.600;1.480;2023-07-28T08:12:29;40.70;1.00
14924;DHT22;7554;43.600;1.480;2023-07-28T08:14:56;40.30;1.00
14924;DHT22;7554;43.600;1.480;2023-07-28T08:17:23;39.90;1.00
14924;DHT22;7554;43.600;1.480;2023-07-28T08:19:51;38.80;1.00
14924;DHT22;7554;43.600;1.480;2023-07-28T08:22:19;38.70;1.00
14924;DHT22;7554;43.600;1.480;2023-07-28T08:24:47;39.10;1.00
14924;DHT22;7554;43.600;1.480;2023-07-28T08:27:14;39.70;1.00
14924;DHT22;7554;43.600;1.480;2023-07-28T08:29:41;40.20;1.00
14924;DHT22;7554;43.600;1.480;2023-07-28T08:32:09;39.90;1.00
14924;DHT22;7554;43.600;1.480;2023-07-28T08:34:37;40.20;1.00
14924;DHT22;7554;43.600;1.480;2023-07-28T08:37:04;37.30;1.00
14924;DHT22;7554;43.600;1.480;2023-07-28T08:39:33;35.60;1.00
14924;DHT22;7554;43.600;1.480;2023-07-28T08:42:01;36.60;1.00
14924;DHT22;7554;43.600;1.480;2023-07-28T08:44:30;36.90;1.00
14924;DHT22;7554;43.600;1.480;2023-07-28T08:46:59;36.80;1.00
14924;DHT22;7554;43.600;1.480;2023-07-28T08:49:26;36.40;1.00
14924;DHT22;7554;43.600;1.480;2023-07-28T08:51:58;35.60;1.00
14924;DHT22;7554;43.600;1.480;2023-07-28T08:54:26;34.50;1.00
14924;DHT22;7554;43.600;1.480;2023-07-28T08:56:55;34.10;1.00
14924;DHT22;7554;43.600;1.480;2023-07-28T08:59:25;36.90;1.00
14924;DHT22;7554;43.600;1.480;2023-07-28T09:01:53;37.90;1.00
14924;DHT22;7554;43.600;1.480;2023-07-28T09:04:21;37.60;1.00
14924;DHT22;7554;43.600;1.480;2023-07-28T09:06:49;36.30;1.00
14924;DHT22;7554;43.600;1.480;2023-07-28T09:09:17;35.10;1.00
14924;DHT22;7554;43.600;1.480;2023-07-28T09:11:45;34.00;1.00
14924;DHT22;7554;43.600;1.480;2023-07-28T09:14:15;33.40;1.00
14924;DHT22;7554;43.600;1.480;2023-07-28T09:16:43;33.10;1.00
14924;DHT22;7554;43.600;1.480;2023-07-28T09:19:10;32.70;1.00
14924;DHT22;7554;43.600;1.480;2023-07-28T09:21:41;32.90;1.00
14924;DHT22;7554;43.600;1.480;2023-07-28T09:24:10;33.40;1.00
14924;DHT22;7554;43.600;1.480;2023-07-28T09:26:38;36.10;1.00
14924;DHT22;7554;43.600;1.480;2023-07-28T09:29:15;38.60;1.00
14924;DHT22;7554;43.600;1.480;2023-07-28T09:31:43;39.80;1.00
14924;DHT22;7554;43.600;1.480;2023-07-28T09:34:11;39.70;1.00
14924;DHT22;7554;43.600;1.480;2023-07-28T09:36:39;36.80;1.00
14924;DHT22;7554;43.600;1.480;2023-07-28T09:39:08;35.20;1.00
14924;DHT22;7554;43.600;1.480;2023-07-28T09:41:36;34.80;1.00
14924;DHT22;7554;43.600;1.480;2023-07-28T09:44:04;34.50;1.00
14924;DHT22;7554;43.600;1.480;2023-07-28T09:46:34;33.70;1.00
14924;DHT22;7554;43.600;1.480;2023-07-28T09:49:05;33.40;1.00
14924;DHT22;7554;43.600;1.480;2023-07-28T09:51:38;33.10;1.00
14924;DHT22;7554;43.600;1.480;2023-07-28T09:54:12;32.80;1.00
14924;DHT22;7554;43.600;1.480;2023-07-28T09:56:40;32.90;1.00
14924;DHT22;7554;43.600;1.480;2023-07-28T09:59:13;32.70;1.00
14924;DHT22;7554;43.600;1.480;2023-07-28T10:01:44;32.60;1.00
14924;DHT22;7554;43.600;1.480;2023-07-28T10:04:11;32.80;1.00
14924;DHT22;7554;43.600;1.480;2023-07-28T10:06:40;32.60;1.00
14924;DHT22;7554;43.600;1.480;2023-07-28T10:09:08;32.60;1.00
14924;DHT22;7554;43.600;1.480;2023-07-28T10:11:37;33.00;1.00
14924;DHT22;7554;43.600;1.480;2023-07-28T10:14:07;33.60;1.00
14924;DHT22;7554;43.600;1.480;2023-07-28T10:16:38;33.80;1.00
14924;DHT22;7554;43.600;1.480;2023-07-28T10:19:08;34.00;1.00
14924;DHT22;7554;43.600;1.480;2023-07-28T10:21:40;33.60;1.00
14924;DHT22;7554;43.600;1.480;2023-07-28T10:24:08;33.70;1.00
14924;DHT22;7554;43.600;1.480;2023-07-28T10:26:36;33.40;1.00
14924;DHT22;7554;43.600;1.480;2023-07-28T10:29:10;33.40;1.00
14924;DHT22;7554;43.600;1.480;2023-07-28T10:31:49;33.50;1.00
14924;DHT22;7554;43.600;1.480;2023-07-28T10:34:19;33.10;1.00
14924;DHT22;7554;43.600;1.480;2023-07-28T10:36:56;33.10;1.00
14924;DHT22;7554;43.600;1.480;2023-07-28T10:39:24;32.50;1.00
14924;DHT22;7554;43.600;1.480;2023-07-28T10:42:03;30.80;1.00
14924;DHT22;7554;43.600;1.480;2023-07-28T10:44:31;30.20;1.00
14924;DHT22;7554;43.600;1.480;2023-07-28T10:46:59;31.20;1.00
14924;DHT22;7554;43.600;1.480;2023-07-28T10:49:28;31.80;1.00
14924;DHT22;7554;43.600;1.480;2023-07-28T10:51:55;32.40;1.00
14924;DHT22;7554;43.600;1.480;2023-07-28T10:54:22;31.60;1.00
14924;DHT22;7554;43.600;1.480;2023-07-28T10:56:50;32.40;1.00
14924;DHT22;7554;43.600;1.480;2023-07-28T10:59:17;33.00;1.00
14924;DHT22;7554;43.600;1.480;2023-07-28T11:01:44;32.70;1.00
14924;DHT22;7554;43.600;1.480;2023-07-28T11:04:14;32.90;1.00
14924;DHT22;7554;43.600;1.480;2023-07-28T11:06:44;32.80;1.00
14924;DHT22;7554;43.600;1.480;2023-07-28T11:09:14;32.40;1.00
14924;DHT22;7554;43.600;1.480;2023-07-28T11:11:42;31.30;1.00
14924;DHT22;7554;43.600;1.480;2023-07-28T11:14:10;31.70;1.00
14924;DHT22;7554;43.600;1.480;2023-07-28T11:16:40;31.30;1.00
14924;DHT22;7554;43.600;1.480;2023-07-28T11:19:09;31.70;1.00
14924;DHT22;7554;43.600;1.480;2023-07-28T11:21:37;31.80;1.00
14924;DHT22;7554;43.600;1.480;2023-07-28T11:24:07;31.50;1.00
14924;DHT22;7554;43.600;1.480;2023-07-28T11:26:35;31.70;1.00
14924;DHT22;7554;43.600;1.480;2023-07-28T11:29:03;31.50;1.00
14924;DHT22;7554;43.600;1.480;2023-07-28T11:31:31;31.80;1.00
14924;DHT22;7554;43.600;1.480;2023-07-28T11:33:59;32.30;1.00
14924;DHT22;7554;43.600;1.480;2023-07-28T11:36:29;32.40;1.00
14924;DHT22;7554;43.600;1.480;2023-07-28T11:38:58;31.50;1.00
14924;DHT22;7554;43.600;1.480;2023-07-28T11:41:28;31.50;1.00
14924;DHT22;7554;43.600;1.480;2023-07-28T11:43:55;31.90;1.00
14924;DHT22;7554;43.600;1.480;2023-07-28T11:46:32;32.00;1.00
14924;DHT22;7554;43.600;1.480;2023-07-28T11:49:10;30.80;1.00
14924;DHT22;7554;43.600;1.480;2023-07-28T11:51:39;31.60;1.00
14924;DHT22;7554;43.600;1.480;2023-07-28T11:54:11;32.20;1.00
14924;DHT22;7554;43.600;1.480;2023-07-28T11:56:41;32.50;1.00
14924;DHT22;7554;43.600;1.480;2023-07-28T11:59:09;32.50;1.00
14924;DHT22;7554;43.600;1.480;2023-07-28T12:01:51;32.00;1.00
14924;DHT22;7554;43.600;1.480;2023-07-28T12:04:19;32.00;1.00
14924;DHT22;7554;43.600;1.480;2023-07-28T12:07:05;32.20;1.00
14924;DHT22;7554;43.600;1.480;2023-07-28T12:09:33;32.20;1.00
14924;DHT22;7554;43.600;1.480;2023-07-28T12:12:17;32.20;1.00
14924;DHT22;7554;43.600;1.480;2023-07-28T12:14:45;32.20;1.00
14924;DHT22;7554;43.600;1.480;2023-07-28T12:17:14;32.10;1.00
14924;DHT22;7554;43.600;1.480;2023-07-28T12:19:58;32.00;1.00
14924;DHT22;7554;43.600;1.480;2023-07-28T12:22:26;31.60;1.00
14924;DHT22;7554;43.600;1.480;2023-07-28T12:24:53;32.00;1.00
14924;DHT22;7554;43.600;1.480;2023-07-28T12:27:22;32.40;1.00
14924;DHT22;7554;43.600;1.480;2023-07-28T12:29:50;32.40;1.00
14924;DHT22;7554;43.600;1.480;2023-07-28T12:32:18;32.60;1.00
14924;DHT22;7554;43.600;1.480;2023-07-28T12:34:46;32.60;1.00
14924;DHT22;7554;43.600;1.480;2023-07-28T12:37:13;31.60;1.00
14924;DHT22;7554;43.600;1.480;2023-07-28T12:39:40;31.30;1.00
14924;DHT22;7554;43.600;1.480;2023-07-28T12:42:08;30.60;1.00
14924;DHT22;7554;43.600;1.480;2023-07-28T12:44:37;31.40;1.00
14924;DHT22;7554;43.600;1.480;2023-07-28T12:47:04;32.00;1.00
14924;DHT22;7554;43.600;1.480;2023-07-28T12:49:32;32.50;1.00
14924;DHT22;7554;43.600;1.480;2023-07-28T12:52:03;32.70;1.00
14924;DHT22;7554;43.600;1.480;2023-07-28T12:54:31;32.40;1.00
14924;DHT22;7554;43.600;1.480;2023-07-28T12:56:58;32.30;1.00
14924;DHT22;7554;43.600;1.480;2023-07-28T12:59:25;32.50;1.00
14924;DHT22;7554;43.600;1.480;2023-07-28T13:01:55;32.30;1.00
14924;DHT22;7554;43.600;1.480;2023-07-28T13:04:22;32.50;1.00
14924;DHT22;7554;43.600;1.480;2023-07-28T13:06:50;32.70;1.00
14924;DHT22;7554;43.600;1.480;2023-07-28T13:09:17;32.60;1.00
14924;DHT22;7554;43.600;1.480;2023-07-28T13:11:44;32.10;1.00
14924;DHT22;7554;43.600;1.480;2023-07-28T13:14:11;31.80;1.00
14924;DHT22;7554;43.600;1.480;2023-07-28T13:16:39;31.90;1.00
14924;DHT22;7554;43.600;1.480;2023-07-28T13:19:08;32.00;1.00
14924;DHT22;7554;43.600;1.480;2023-07-28T13:21:35;32.00;1.00
14924;DHT22;7554;43.600;1.480;2023-07-28T13:24:02;32.20;1.00
14924;DHT22;7554;43.600;1.480;2023-07-28T13:26:30;31.80;1.00
14924;DHT22;7554;43.600;1.480;2023-07-28T13:28:57;31.10;1.00
14924;DHT22;7554;43.600;1.480;2023-07-28T13:31:27;31.50;1.00
14924;DHT22;7554;43.600;1.480;2023-07-28T13:33:55;32.00;1.00
14924;DHT22;7554;43.600;1.480;2023-07-28T13:36:23;31.20;1.00
14924;DHT22;7554;43.600;1.480;2023-07-28T13:38:51;30.70;1.00
14924;DHT22;7554;43.600;1.480;2023-07-28T13:41:18;30.10;1.00
14924;DHT22;7554;43.600;1.480;2023-07-28T13:43:45;30.40;1.00
14924;DHT22;7554;43.600;1.480;2023-07-28T13:46:13;31.10;1.00
14924;DHT22;7554;43.600;1.480;2023-07-28T13:48:40;31.50;1.00
14924;DHT22;7554;43.600;1.480;2023-07-28T13:51:07;30.90;1.00
14924;DHT22;7554;43.600;1.480;2023-07-28T13:53:36;30.70;1.00
14924;DHT22;7554;43.600;1.480;2023-07-28T13:56:03;30.60;1.00
14924;DHT22;7554;43.600;1.480;2023-07-28T13:58:31;30.90;1.00
14924;DHT22;7554;43.600;1.480;2023-07-28T14:00:58;31.20;1.00
14924;DHT22;7554;43.600;1.480;2023-07-28T14:03:26;31.50;1.00
14924;DHT22;7554;43.600;1.480;2023-07-28T14:05:53;31.50;1.00
14924;DHT22;7554;43.600;1.480;2023-07-28T14:08:20;31.50;1.00
14924;DHT22;7554;43.600;1.480;2023-07-28T14:10:49;31.50;1.00
14924;DHT22;7554;43.600;1.480;2023-07-28T14:13:16;31.20;1.00
14924;DHT22;7554;43.600;1.480;2023-07-28T14:15:43;31.00;1.00
14924;DHT22;7554;43.600;1.480;2023-07-28T14:18:11;31.00;1.00
14924;DHT22;7554;43.600;1.480;2023-07-28T14:20:38;30.70;1.00
14924;DHT22;7554;43.600;1.480;2023-07-28T14:23:21;30.30;1.00
14924;DHT22;7554;43.600;1.480;2023-07-28T14:25:50;30.50;1.00
14924;DHT22;7554;43.600;1.480;2023-07-28T14:28:18;30.80;1.00
14924;DHT22;7554;43.600;1.480;2023-07-28T14:30:46;30.90;1.00
14924;DHT22;7554;43.600;1.480;2023-07-28T14:33:13;30.80;1.00
14924;DHT22;7554;43.600;1.480;2023-07-28T14:35:42;30.80;1.00
14924;DHT22;7554;43.600;1.480;2023-07-28T14:38:10;30.80;1.00
14924;DHT22;7554;43.600;1.480;2023-07-28T14:40:38;30.40;1.00
14924;DHT22;7554;43.600;1.480;2023-07-28T14:43:07;30.20;1.00
14924;DHT22;7554;43.600;1.480;2023-07-28T14:45:34;30.30;1.00
14924;DHT22;7554;43.600;1.480;2023-07-28T14:48:02;30.10;1.00
14924;DHT22;7554;43.600;1.480;2023-07-28T14:50:29;29.80;1.00
14924;DHT22;7554;43.600;1.480;2023-07-28T14:52:58;29.60;1.00
14924;DHT22;7554;43.600;1.480;2023-07-28T14:55:28;29.60;1.00
14924;DHT22;7554;43.600;1.480;2023-07-28T14:57:55;29.60;1.00
14924;DHT22;7554;43.600;1.480;2023-07-28T15:00:24;29.50;1.00
14924;DHT22;7554;43.600;1.480;2023-07-28T15:02:52;29.30;1.00
14924;DHT22;7554;43.600;1.480;2023-07-28T15:05:19;29.30;1.00
14924;DHT22;7554;43.600;1.480;2023-07-28T15:07:46;29.50;1.00
14924;DHT22;7554;43.600;1.480;2023-07-28T15:10:13;29.80;1.00
14924;DHT22;7554;43.600;1.480;2023-07-28T15:12:41;29.70;1.00
14924;DHT22;7554;43.600;1.480;2023-07-28T15:15:10;29.70;1.00
14924;DHT22;7554;43.600;1.480;2023-07-28T15:17:38;29.70;1.00
14924;DHT22;7554;43.600;1.480;2023-07-28T15:20:07;29.80;1.00
14924;DHT22;7554;43.600;1.480;2023-07-28T15:22:34;29.80;1.00
14924;DHT22;7554;43.600;1.480;2023-07-28T15:25:02;29.80;1.00
14924;DHT22;7554;43.600;1.480;2023-07-28T15:27:30;29.80;1.00
14924;DHT22;7554;43.600;1.480;2023-07-28T15:29:57;29.80;1.00
14924;DHT22;7554;43.600;1.480;2023-07-28T15:32:24;29.80;1.00
14924;DHT22;7554;43.600;1.480;2023-07-28T15:34:53;29.80;1.00
14924;DHT22;7554;43.600;1.480;2023-07-28T15:37:20;29.90;1.00
14924;DHT22;7554;43.600;1.480;2023-07-28T15:39:48;29.90;1.00
14924;DHT22;7554;43.600;1.480;2023-07-28T15:42:15;29.90;1.00
14924;DHT22;7554;43.600;1.480;2023-07-28T15:44:44;29.80;1.00
14924;DHT22;7554;43.600;1.480;2023-07-28T15:47:11;29.80;1.00
14924;DHT22;7554;43.600;1.480;2023-07-28T15:49:38;29.80;1.00
14924;DHT22;7554;43.600;1.480;2023-07-28T15:52:08;29.60;1.00
14924;DHT22;7554;43.600;1.480;2023-07-28T15:54:35;29.70;1.00
14924;DHT22;7554;43.600;1.480;2023-07-28T15:57:03;29.70;1.00
14924;DHT22;7554;43.600;1.480;2023-07-28T15:59:32;29.70;1.00
14924;DHT22;7554;43.600;1.480;2023-07-28T16:01:59;29.70;1.00
14924;DHT22;7554;43.600;1.480;2023-07-28T16:04:26;29.60;1.00
14924;DHT22;7554;43.600;1.480;2023-07-28T16:06:53;29.60;1.00
14924;DHT22;7554;43.600;1.480;2023-07-28T16:09:22;29.40;1.00